Time;durP1;ratioP1;P1;durP2;ratioP2;P2;SDS_P1;SDS_P2;PMS_P1;PMS_P2;Temp;Humidity;BMP_temperature;BMP_pressure;BME280_temperature;BME280_humidity;BME280_pressure;Samples;Min_cycle;Max_cycle;Signal;HPM_P1;HPM_P2
2022/05/02 00:00:48;;;;;;;4.88;4.20;;;8.80;75.60;;;;;;5052769;28;20209;-61
2022/05/02 00:03:16;;;;;;;5.03;4.25;;;8.80;76.00;;;;;;5053036;28;20232;-60
2022/05/02 00:05:43;;;;;;;3.70;3.40;;;8.80;76.80;;;;;;5052703;28;20201;-60
2022/05/02 00:08:12;;;;;;;5.13;3.88;;;8.80;76.40;;;;;;5052647;28;20221;-62
2022/05/02 00:10:39;;;;;;;4.05;3.75;;;8.80;76.80;;;;;;5053013;28;20215;-61
2022/05/02 00:13:09;;;;;;;5.07;4.45;;;8.80;77.10;;;;;;5052630;28;20210;-61
2022/05/02 00:15:36;;;;;;;4.47;4.03;;;8.70;77.10;;;;;;5052589;28;20682;-61
2022/05/02 00:18:04;;;;;;;4.13;3.80;;;8.70;77.50;;;;;;5052630;28;20252;-61
2022/05/02 00:20:33;;;;;;;4.30;3.90;;;8.60;77.90;;;;;;5052898;28;20206;-62
2022/05/02 00:23:03;;;;;;;4.43;3.95;;;8.60;78.40;;;;;;5052619;28;20216;-61
2022/05/02 00:25:31;;;;;;;4.65;4.25;;;8.60;78.70;;;;;;5055022;28;20202;-61
2022/05/02 00:27:59;;;;;;;5.60;4.00;;;8.60;79.20;;;;;;5057018;28;20226;-61
2022/05/02 00:30:27;;;;;;;5.80;4.45;;;8.50;79.50;;;;;;5057026;28;20585;-62
2022/05/02 00:32:55;;;;;;;4.53;4.10;;;8.50;80.00;;;;;;5056648;28;20696;-62
2022/05/02 00:35:22;;;;;;;4.40;3.90;;;8.40;80.40;;;;;;5056528;28;20227;-62
2022/05/02 00:37:49;;;;;;;6.55;4.25;;;8.40;80.70;;;;;;5056462;28;20221;-61
2022/05/02 00:40:18;;;;;;;5.00;4.50;;;8.40;81.30;;;;;;5056515;28;20201;-62
2022/05/02 00:42:47;;;;;;;4.05;3.55;;;8.30;81.70;;;;;;5057326;28;20205;-61
2022/05/02 00:45:17;;;;;;;6.45;3.72;;;8.30;82.00;;;;;;5056854;28;20197;-61
2022/05/02 00:47:51;;;;;;;5.47;4.32;;;8.30;82.50;;;;;;5057041;28;20602;-60
2022/05/02 00:50:31;;;;;;;6.50;4.75;;;8.20;82.80;;;;;;5057669;28;20589;-62
2022/05/02 00:52:58;;;;;;;6.78;4.65;;;8.20;83.60;;;;;;5057496;28;20185;-60
2022/05/02 00:55:25;;;;;;;4.93;4.43;;;8.10;84.20;;;;;;5057226;28;20218;-61
2022/05/02 00:57:55;;;;;;;7.57;5.20;;;8.10;84.60;;;;;;5056920;28;20579;-62
2022/05/02 01:00:22;;;;;;;5.82;4.75;;;8.00;85.10;;;;;;5057677;28;20201;-62
2022/05/02 01:02:50;;;;;;;5.00;4.57;;;8.00;85.60;;;;;;5056885;28;20576;-61
2022/05/02 01:05:17;;;;;;;7.20;4.00;;;8.00;86.10;;;;;;5057422;28;20540;-62
2022/05/02 01:07:46;;;;;;;8.18;5.38;;;7.90;86.40;;;;;;5056094;28;20732;-61
2022/05/02 01:10:17;;;;;;;6.18;4.80;;;7.80;86.90;;;;;;5056080;28;20662;-62
2022/05/02 01:12:44;;;;;;;8.48;4.35;;;7.80;87.60;;;;;;5056363;28;20189;-62
2022/05/02 01:15:14;;;;;;;5.78;4.18;;;7.80;88.10;;;;;;5056124;28;20232;-61
2022/05/02 01:17:41;;;;;;;4.70;4.20;;;7.80;88.50;;;;;;5055658;28;20229;-61
2022/05/02 01:20:11;;;;;;;7.40;4.90;;;7.80;89.00;;;;;;5055925;28;20284;-61
2022/05/02 01:22:38;;;;;;;5.25;4.75;;;7.80;89.50;;;;;;5057287;28;20213;-61
2022/05/02 01:25:06;;;;;;;5.57;4.40;;;7.80;89.50;;;;;;5056234;28;20202;-61
2022/05/02 01:27:33;;;;;;;4.97;4.35;;;7.80;89.50;;;;;;5055555;28;20225;-61
2022/05/02 01:30:00;;;;;;;5.22;4.00;;;7.80;89.90;;;;;;5055984;28;20205;-61
2022/05/02 01:32:28;;;;;;;6.80;4.57;;;7.80;90.10;;;;;;5055551;28;20209;-61
2022/05/02 01:34:55;;;;;;;5.57;5.00;;;7.70;90.20;;;;;;5055693;28;20728;-61
2022/05/02 01:37:23;;;;;;;5.88;5.38;;;7.70;90.40;;;;;;5054843;28;20721;-61
2022/05/02 01:39:50;;;;;;;6.47;4.45;;;7.70;90.60;;;;;;5056024;28;20209;-60
2022/05/02 01:42:17;;;;;;;5.63;5.03;;;7.60;90.80;;;;;;5055788;28;20255;-61
2022/05/02 01:44:44;;;;;;;6.60;4.50;;;7.60;91.10;;;;;;5055636;28;20201;-62
2022/05/02 01:47:11;;;;;;;5.20;4.70;;;7.50;91.30;;;;;;5055568;28;20228;-60
2022/05/02 01:49:38;;;;;;;5.95;5.35;;;7.50;91.50;;;;;;5056047;28;20206;-61
2022/05/02 01:52:06;;;;;;;8.18;5.20;;;7.40;91.70;;;;;;5055957;28;20208;-62
2022/05/02 01:54:35;;;;;;;4.95;4.55;;;7.40;91.90;;;;;;5055479;28;20217;-61
2022/05/02 01:57:02;;;;;;;8.85;5.55;;;7.30;92.10;;;;;;5055457;28;20237;-62
2022/05/02 01:59:29;;;;;;;6.13;5.35;;;7.30;92.30;;;;;;5055650;28;20205;-61
2022/05/02 02:01:56;;;;;;;5.22;4.72;;;7.30;92.50;;;;;;5055213;28;20208;-62
2022/05/02 02:07:08;;;;;;;4.75;4.35;;;7.20;93.00;;;;;;5055199;28;20303;-61
2022/05/02 02:09:36;;;;;;;5.35;4.85;;;7.30;93.10;;;;;;5055630;28;20204;-61
2022/05/02 02:12:04;;;;;;;6.72;5.00;;;7.20;93.00;;;;;;5055258;28;20214;-61
2022/05/02 02:14:31;;;;;;;4.90;4.40;;;7.20;93.20;;;;;;5054983;28;20221;-60
2022/05/02 02:16:58;;;;;;;5.38;4.80;;;7.20;93.60;;;;;;5054855;28;20252;-62
2022/05/02 02:19:25;;;;;;;5.45;4.90;;;7.20;93.70;;;;;;5054756;28;20251;-61
2022/05/02 02:21:52;;;;;;;5.43;4.78;;;7.10;93.80;;;;;;5054840;28;20202;-61
2022/05/02 02:24:19;;;;;;;6.25;4.80;;;7.10;93.90;;;;;;5054915;28;20198;-60
2022/05/02 02:26:48;;;;;;;5.97;4.50;;;7.10;94.10;;;;;;5054798;28;20618;-59
2022/05/02 02:29:15;;;;;;;11.30;5.28;;;7.10;94.30;;;;;;5054746;28;20202;-60
2022/05/02 02:31:42;;;;;;;5.90;5.03;;;7.10;94.50;;;;;;5054825;28;20213;-60
2022/05/02 02:34:09;;;;;;;5.28;4.78;;;7.00;94.50;;;;;;5054705;28;20209;-60
2022/05/02 02:36:36;;;;;;;5.35;4.57;;;7.00;94.70;;;;;;5054607;28;20244;-60
2022/05/02 02:39:03;;;;;;;6.30;4.85;;;7.00;94.60;;;;;;5054645;28;20225;-61
2022/05/02 02:41:30;;;;;;;5.85;5.35;;;7.00;94.80;;;;;;5054330;28;20202;-60
2022/05/02 02:43:58;;;;;;;6.70;5.38;;;7.00;95.00;;;;;;5054638;28;20236;-60
2022/05/02 02:46:25;;;;;;;5.65;5.15;;;6.90;95.10;;;;;;5054204;28;20710;-61
2022/05/02 02:48:52;;;;;;;5.43;4.50;;;6.90;95.30;;;;;;5053374;28;20591;-61
2022/05/02 02:51:19;;;;;;;5.53;5.03;;;6.90;95.60;;;;;;5054175;28;20201;-61
2022/05/02 02:53:48;;;;;;;7.78;4.82;;;6.90;95.60;;;;;;5054421;28;20213;-60
2022/05/02 02:56:15;;;;;;;7.38;4.63;;;6.90;95.80;;;;;;5054354;28;20313;-60
2022/05/02 02:58:42;;;;;;;5.55;5.05;;;6.90;95.80;;;;;;5054575;28;20205;-60
2022/05/02 03:01:11;;;;;;;4.80;4.40;;;6.90;95.70;;;;;;5054506;28;20202;-60
2022/05/02 03:03:38;;;;;;;5.32;4.80;;;6.90;95.80;;;;;;5053975;28;20220;-60
2022/05/02 03:06:05;;;;;;;9.65;5.30;;;6.90;95.90;;;;;;5053733;28;20202;-60
2022/05/02 03:08:36;;;;;;;5.82;5.28;;;6.90;96.10;;;;;;5054076;28;20271;-61
2022/05/02 03:11:04;;;;;;;5.97;5.38;;;6.90;96.30;;;;;;5053886;28;20684;-61
2022/05/02 03:13:31;;;;;;;6.18;5.35;;;6.90;96.20;;;;;;5054141;28;20201;-61
2022/05/02 03:15:58;;;;;;;6.72;5.97;;;7.00;96.20;;;;;;5053585;28;20225;-61
2022/05/02 03:18:27;;;;;;;6.28;5.68;;;6.90;96.20;;;;;;5084114;22;20590;-61
2022/05/02 03:20:54;;;;;;;5.65;5.15;;;6.90;96.40;;;;;;5060214;28;20205;-61
2022/05/02 03:23:21;;;;;;;6.10;5.55;;;6.90;96.70;;;;;;5062359;28;20206;-61
2022/05/02 03:25:48;;;;;;;9.77;5.80;;;6.80;96.90;;;;;;5067889;28;20194;-61
2022/05/02 03:28:16;;;;;;;6.95;5.80;;;6.80;97.00;;;;;;5071304;28;20229;-61
2022/05/02 03:30:43;;;;;;;6.50;5.78;;;6.80;97.10;;;;;;5064203;28;20227;-61
2022/05/02 03:33:10;;;;;;;5.72;5.22;;;6.70;97.30;;;;;;5064244;28;20634;-62
2022/05/02 03:35:39;;;;;;;8.18;6.22;;;6.70;97.60;;;;;;5064088;28;20229;-60
2022/05/02 03:38:06;;;;;;;8.70;5.80;;;6.60;97.90;;;;;;5064358;28;20222;-62
2022/05/02 03:40:33;;;;;;;5.93;5.32;;;6.60;98.00;;;;;;5064245;28;20202;-61
2022/05/02 03:43:00;;;;;;;5.75;4.85;;;6.60;98.30;;;;;;5061236;28;20299;-61
2022/05/02 03:45:27;;;;;;;5.93;5.43;;;6.60;98.40;;;;;;5060676;28;20205;-61
2022/05/02 03:47:54;;;;;;;7.10;5.70;;;6.60;98.60;;;;;;5054724;28;20233;-61
2022/05/02 03:50:22;;;;;;;6.10;5.30;;;6.70;98.90;;;;;;5054292;28;20201;-61
2022/05/02 03:52:50;;;;;;;6.93;5.50;;;6.70;98.80;;;;;;5055403;28;20216;-61
2022/05/02 03:55:17;;;;;;;6.45;5.82;;;6.80;98.80;;;;;;5067759;28;20218;-60
2022/05/02 03:57:44;;;;;;;6.05;5.18;;;6.80;98.80;;;;;;5054636;28;20720;-61
2022/05/02 04:00:13;;;;;;;5.55;5.05;;;6.90;98.60;;;;;;5056566;28;20209;-58
2022/05/02 04:02:40;;;;;;;6.38;4.85;;;6.90;98.40;;;;;;5058652;28;20229;-60
2022/05/02 04:05:08;;;;;;;6.82;6.22;;;6.90;98.40;;;;;;5056450;28;20198;-61
2022/05/02 04:09:43;;;;;;;7.95;6.45;;;6.80;98.10;;;;;;5095997;27;20534;-61
2022/05/02 04:12:11;;;;;;;7.55;5.55;;;6.80;98.20;;;;;;5095256;28;20200;-63
2022/05/02 04:14:38;;;;;;;6.00;5.40;;;6.70;98.40;;;;;;5093986;28;20204;-60
2022/05/02 04:17:06;;;;;;;6.40;5.80;;;6.70;98.60;;;;;;5092154;28;20221;-61
2022/05/02 04:19:33;;;;;;;7.22;5.97;;;6.70;98.90;;;;;;5091919;28;20196;-61
2022/05/02 04:22:00;;;;;;;7.90;5.35;;;6.70;99.10;;;;;;5092505;28;20275;-61
2022/05/02 04:24:28;;;;;;;9.18;5.45;;;6.80;99.20;;;;;;5092109;28;20212;-61
2022/05/02 04:26:57;;;;;;;9.57;6.45;;;6.80;99.10;;;;;;5097890;28;20220;-61
2022/05/02 04:29:25;;;;;;;5.72;5.13;;;7.00;99.20;;;;;;5096959;28;20256;-61
2022/05/02 04:31:52;;;;;;;7.07;5.30;;;7.10;99.20;;;;;;5093918;28;20201;-61
2022/05/02 04:34:19;;;;;;;7.13;6.15;;;7.20;98.90;;;;;;5093166;28;20192;-61
2022/05/02 04:36:46;;;;;;;6.68;5.93;;;7.40;98.80;;;;;;5094522;28;20231;-61
2022/05/02 04:39:13;;;;;;;6.55;5.88;;;7.50;98.50;;;;;;5100120;28;20208;-61
2022/05/02 04:41:40;;;;;;;6.35;5.75;;;7.60;98.40;;;;;;5091575;28;20568;-61
2022/05/02 04:44:09;;;;;;;7.03;5.40;;;7.90;98.30;;;;;;5091266;28;20206;-61
2022/05/02 04:46:36;;;;;;;6.60;5.95;;;8.00;97.70;;;;;;5091776;28;20210;-61
2022/05/02 04:49:03;;;;;;;8.35;5.95;;;8.20;97.00;;;;;;5091461;28;20223;-61
2022/05/02 04:51:30;;;;;;;6.72;5.32;;;8.20;96.40;;;;;;5091429;28;20210;-61
2022/05/02 04:53:57;;;;;;;8.50;5.95;;;8.20;96.10;;;;;;5093881;28;20706;-61
2022/05/02 04:56:24;;;;;;;5.75;5.00;;;8.20;96.00;;;;;;5102058;28;20203;-61
2022/05/02 04:58:51;;;;;;;6.43;5.82;;;8.20;95.80;;;;;;5102112;28;20216;-61
2022/05/02 05:01:20;;;;;;;6.60;6.00;;;8.10;95.50;;;;;;5098089;28;20205;-61
2022/05/02 05:03:47;;;;;;;7.32;6.55;;;8.10;95.50;;;;;;5096807;28;20267;-60
2022/05/02 05:06:14;;;;;;;7.30;5.88;;;8.00;95.60;;;;;;5098511;28;20210;-61
2022/05/02 05:08:41;;;;;;;6.65;5.32;;;8.00;95.70;;;;;;5092433;28;20224;-61
2022/05/02 05:11:23;;;;;;;6.90;5.53;;;8.00;95.70;;;;;;5093112;28;20206;-62
2022/05/02 05:17:02;;;;;;;8.88;6.72;;;8.00;95.70;;;;;;5091152;28;20185;-61
2022/05/02 05:19:54;;;;;;;6.85;5.60;;;8.00;95.60;;;;;;5087227;28;20562;-60
2022/05/02 05:22:34;;;;;;;7.00;5.55;;;8.00;95.60;;;;;;5077661;28;20189;-61
2022/05/02 05:25:17;;;;;;;5.60;4.88;;;8.10;95.50;;;;;;5078138;28;20188;-61
2022/05/02 05:28:05;;;;;;;7.28;6.25;;;8.10;95.30;;;;;;5077779;28;20598;-61
2022/05/02 05:30:41;;;;;;;8.02;7.32;;;8.10;95.30;;;;;;5077364;28;20197;-60
2022/05/02 05:33:21;;;;;;;9.20;5.97;;;8.10;95.10;;;;;;5077115;28;20561;-62
2022/05/02 05:36:02;;;;;;;7.72;6.38;;;8.20;95.00;;;;;;5079512;28;20212;-61
2022/05/02 05:38:39;;;;;;;10.73;6.20;;;8.20;94.90;;;;;;5082456;28;20229;-62
2022/05/02 05:41:20;;;;;;;7.07;6.40;;;8.30;94.80;;;;;;5082839;28;20217;-60
2022/05/02 05:44:09;;;;;;;8.38;6.20;;;8.40;94.70;;;;;;5084224;28;20192;-62
2022/05/02 05:47:01;;;;;;;6.68;6.07;;;8.50;94.40;;;;;;5079280;28;20215;-60
2022/05/02 05:49:42;;;;;;;7.78;6.13;;;8.60;94.20;;;;;;5065102;28;20212;-60
2022/05/02 05:52:21;;;;;;;6.88;6.05;;;8.70;94.00;;;;;;5060794;28;20183;-61
2022/05/02 05:55:04;;;;;;;7.35;6.65;;;8.90;93.60;;;;;;5057966;28;20195;-62
2022/05/02 05:57:39;;;;;;;8.25;6.28;;;9.00;93.30;;;;;;5058748;28;20257;-62
2022/05/02 06:00:10;;;;;;;8.52;6.80;;;9.20;92.80;;;;;;5057499;28;20621;-63
2022/05/02 06:02:49;;;;;;;6.28;5.55;;;9.30;92.30;;;;;;5078043;28;20252;-59
2022/05/02 06:05:18;;;;;;;6.70;6.10;;;9.50;92.00;;;;;;5077103;28;20204;-61
2022/05/02 06:07:47;;;;;;;6.70;6.00;;;9.60;91.60;;;;;;5076818;28;20481;-61
2022/05/02 06:10:16;;;;;;;7.43;6.72;;;9.70;91.10;;;;;;5075398;28;20193;-61
2022/05/02 06:12:45;;;;;;;6.23;5.63;;;9.80;90.80;;;;;;5075920;28;20715;-63
2022/05/02 06:20:46;;;;;;;7.03;6.37;;;10.10;88.60;;;;;;5075630;28;20503;-59
2022/05/02 06:23:15;;;;;;;8.50;5.80;;;10.20;87.50;;;;;;5076304;28;20443;-60
2022/05/02 06:25:44;;;;;;;10.33;6.50;;;10.30;86.80;;;;;;5074767;28;20469;-58
2022/05/02 06:28:12;;;;;;;8.47;6.30;;;10.40;86.10;;;;;;5077531;28;20866;-60
2022/05/02 06:30:44;;;;;;;9.13;7.20;;;10.60;85.50;;;;;;5077196;28;20443;-59
2022/05/02 06:33:13;;;;;;;6.83;5.93;;;10.70;84.70;;;;;;5074739;28;20478;-59
2022/05/02 06:36:05;;;;;;;9.20;6.60;;;11.00;83.90;;;;;;5075783;28;20879;-60
2022/05/02 06:38:45;;;;;;;9.40;6.80;;;11.30;82.10;;;;;;5076112;28;20473;-60
2022/05/02 06:41:25;;;;;;;9.33;6.03;;;11.50;80.70;;;;;;5074049;28;20443;-61
2022/05/02 06:43:57;;;;;;;8.07;6.40;;;11.70;79.30;;;;;;5075894;28;20435;-57
2022/05/02 06:46:33;;;;;;;9.83;6.70;;;11.90;78.40;;;;;;5075737;28;20932;-59
2022/05/02 06:49:04;;;;;;;8.50;6.53;;;12.10;77.10;;;;;;5074534;28;20471;-58
2022/05/02 06:51:38;;;;;;;10.27;6.70;;;12.20;75.70;;;;;;5074250;28;20862;-59
2022/05/02 06:54:30;;;;;;;9.33;6.93;;;12.20;74.40;;;;;;5074341;28;20432;-59
2022/05/02 06:57:07;;;;;;;7.63;6.40;;;12.20;74.20;;;;;;5074782;28;20964;-61
2022/05/02 06:59:40;;;;;;;10.90;7.20;;;12.10;74.30;;;;;;5075501;28;20427;-62
2022/05/02 07:03:08;;;;;;;9.90;6.70;;;12.00;74.50;;;;;;5075294;28;20449;-59
2022/05/02 07:05:46;;;;;;;10.80;7.80;;;12.00;75.00;;;;;;5074892;28;20907;-61
2022/05/02 07:08:22;;;;;;;8.87;6.93;;;12.10;75.10;;;;;;5075792;28;20872;-63
2022/05/02 07:10:56;;;;;;;9.83;7.83;;;12.20;74.50;;;;;;5076172;28;20442;-60
2022/05/02 07:13:39;;;;;;;9.23;7.90;;;12.40;74.20;;;;;;5074912;28;20461;-61
2022/05/02 07:16:17;;;;;;;9.57;7.27;;;12.50;73.30;;;;;;5074359;28;20880;-60
2022/05/02 07:19:05;;;;;;;10.50;7.27;;;12.70;73.10;;;;;;5073983;28;20977;-60
2022/05/02 07:21:40;;;;;;;11.93;7.23;;;12.70;71.70;;;;;;5073119;28;20530;-61
2022/05/02 07:24:19;;;;;;;9.97;6.90;;;12.90;71.80;;;;;;5072266;28;20442;-61
2022/05/02 07:26:51;;;;;;;11.83;7.73;;;13.10;71.00;;;;;;5079440;28;20808;-61
2022/05/02 07:29:20;;;;;;;10.57;7.00;;;13.30;70.10;;;;;;5070329;28;20471;-61
2022/05/02 07:31:48;;;;;;;10.30;7.53;;;13.40;69.00;;;;;;5072066;28;20810;-61
2022/05/02 07:34:17;;;;;;;8.53;7.73;;;13.50;67.80;;;;;;5074193;28;20443;-61
2022/05/02 07:36:51;;;;;;;9.20;8.10;;;13.60;67.20;;;;;;5074174;28;20439;-62
2022/05/02 07:39:22;;;;;;;9.07;7.73;;;13.70;66.60;;;;;;5073568;28;20468;-61
2022/05/02 07:41:51;;;;;;;10.77;7.83;;;13.90;65.90;;;;;;5075220;28;20434;-60
2022/05/02 07:44:20;;;;;;;9.20;8.07;;;14.00;64.80;;;;;;5075309;28;20499;-61
2022/05/02 07:46:49;;;;;;;8.53;7.13;;;14.10;64.20;;;;;;5073796;28;20555;-61
2022/05/02 07:49:23;;;;;;;10.00;6.83;;;14.30;63.50;;;;;;5072964;28;20495;-61
2022/05/02 07:51:52;;;;;;;14.37;7.60;;;14.50;62.60;;;;;;5073675;28;20439;-61
2022/05/02 07:54:22;;;;;;;11.27;7.30;;;14.60;61.70;;;;;;5073678;28;20446;-61
2022/05/02 07:56:56;;;;;;;14.87;7.90;;;14.80;60.90;;;;;;5073196;28;20473;-63
2022/05/02 07:59:26;;;;;;;13.33;8.67;;;15.00;59.70;;;;;;5073279;28;20419;-61
2022/05/02 08:01:53;;;;;;;10.00;7.47;;;15.20;58.90;;;;;;5073933;28;20850;-60
2022/05/02 08:04:23;;;;;;;12.50;6.90;;;15.30;58.30;;;;;;5073106;28;20446;-60
2022/05/02 08:07:09;;;;;;;10.20;7.50;;;15.50;57.80;;;;;;5073799;28;20503;-61
2022/05/02 08:10:15;;;;;;;9.40;6.87;;;15.80;57.10;;;;;;5073250;28;20482;-61
2022/05/02 08:12:53;;;;;;;8.53;7.07;;;16.10;56.20;;;;;;5076299;28;20446;-60
2022/05/02 08:15:25;;;;;;;10.03;7.10;;;16.30;55.40;;;;;;5076623;28;20427;-61
2022/05/02 08:18:24;;;;;;;8.00;7.03;;;16.30;55.20;;;;;;5076689;28;20474;-63
2022/05/02 08:20:56;;;;;;;10.83;7.87;;;16.40;54.90;;;;;;5052337;28;20835;-63
2022/05/02 08:29:39;;;;;;;10.13;6.73;;;16.60;53.80;;;;;;5072157;28;20517;-61
2022/05/02 08:32:10;;;;;;;8.07;5.97;;;16.50;53.50;;;;;;5073270;28;20427;-62
2022/05/02 08:34:44;;;;;;;9.10;5.80;;;16.50;53.20;;;;;;5073774;28;20427;-62
2022/05/02 08:37:37;;;;;;;7.77;6.00;;;16.50;52.90;;;;;;5072014;28;20478;-62
2022/05/02 08:40:14;;;;;;;7.53;6.17;;;16.50;52.70;;;;;;5073836;28;20447;-62
2022/05/02 08:43:16;;;;;;;9.80;5.80;;;16.50;52.40;;;;;;5083495;28;20427;-63
2022/05/02 08:46:08;;;;;;;8.23;5.70;;;16.50;52.50;;;;;;5072273;28;20526;-61
2022/05/02 08:52:43;;;;;;;7.83;6.40;;;16.90;52.10;;;;;;5072987;28;20427;-60
2022/05/02 08:55:22;;;;;;;8.70;6.37;;;17.10;51.70;;;;;;5075544;28;20950;-61
2022/05/02 08:58:37;;;;;;;7.03;5.50;;;17.30;51.10;;;;;;5077222;28;20474;-62
2022/05/02 09:01:50;;;;;;;7.53;5.90;;;17.30;50.70;;;;;;5057127;28;20428;-61
2022/05/02 09:04:58;;;;;;;9.47;5.93;;;17.30;50.90;;;;;;5058216;28;20446;-61
2022/05/02 09:07:58;;;;;;;8.47;5.93;;;17.30;50.50;;;;;;5045060;28;20464;-63
2022/05/02 09:10:41;;;;;;;9.57;6.40;;;17.40;50.50;;;;;;5095911;28;20517;-62
2022/05/02 09:13:43;;;;;;;10.40;6.43;;;17.50;50.30;;;;;;5089851;28;20423;-63
2022/05/02 09:17:03;;;;;;;7.20;5.93;;;17.70;50.10;;;;;;5067327;28;20432;-62
2022/05/02 09:20:01;;;;;;;8.07;6.20;;;17.70;49.80;;;;;;5083493;22;20499;-62
2022/05/02 09:22:58;;;;;;;9.87;6.33;;;17.60;49.90;;;;;;5035341;28;20444;-60
2022/05/02 09:25:36;;;;;;;10.10;5.90;;;17.60;50.00;;;;;;5036400;28;20425;-62
2022/05/02 09:28:15;;;;;;;9.90;7.07;;;17.70;50.00;;;;;;5036167;28;20500;-61
2022/05/02 09:31:09;;;;;;;15.13;9.13;;;17.90;49.50;;;;;;5035196;28;20868;-61
2022/05/02 09:33:45;;;;;;;7.97;6.00;;;18.00;48.80;;;;;;5035771;28;20921;-60
2022/05/02 09:36:25;;;;;;;17.13;8.10;;;18.10;48.70;;;;;;5035078;28;20447;-61
2022/05/02 09:39:04;;;;;;;8.90;6.53;;;18.30;48.60;;;;;;5036844;28;20571;-62
2022/05/02 09:41:55;;;;;;;8.23;6.30;;;18.40;48.20;;;;;;5036078;28;20424;-60
2022/05/02 09:50:34;;;;;;;8.00;5.80;;;18.50;48.30;;;;;;5035527;28;20553;-60
2022/05/02 09:53:11;;;;;;;8.97;6.07;;;18.70;47.90;;;;;;5035094;28;20463;-60
2022/05/02 09:58:57;;;;;;;8.93;6.17;;;19.00;46.80;;;;;;5030143;28;20552;-59
2022/05/02 10:01:28;;;;;;;9.10;5.60;;;19.10;46.50;;;;;;5036127;28;20452;-62
2022/05/02 10:04:20;;;;;;;11.73;6.90;;;19.20;46.20;;;;;;5035925;28;20449;-61
2022/05/02 10:06:53;;;;;;;7.50;6.40;;;19.30;45.50;;;;;;5035560;28;20428;-60
2022/05/02 10:09:43;;;;;;;8.33;5.73;;;19.20;44.60;;;;;;5035435;28;20488;-61
2022/05/02 10:12:25;;;;;;;10.93;6.20;;;19.10;44.30;;;;;;5034696;28;20441;-60
2022/05/02 10:15:19;;;;;;;8.70;5.87;;;19.00;44.20;;;;;;5035214;28;20492;-60
2022/05/02 10:18:06;;;;;;;11.63;7.10;;;19.10;43.90;;;;;;5034195;28;20543;-60
2022/05/02 10:20:46;;;;;;;12.97;6.07;;;19.20;43.70;;;;;;5035190;28;20504;-60
2022/05/02 10:23:34;;;;;;;7.40;6.50;;;19.20;43.40;;;;;;5035437;28;20875;-60
2022/05/02 10:26:09;;;;;;;9.20;5.83;;;19.20;43.20;;;;;;5034238;28;20437;-60
2022/05/02 10:29:10;;;;;;;6.30;5.70;;;19.30;43.00;;;;;;5035420;28;20433;-61
2022/05/02 10:31:40;;;;;;;7.30;6.10;;;19.30;42.90;;;;;;5034546;28;20456;-57
2022/05/02 10:34:10;;;;;;;8.10;6.60;;;19.40;42.90;;;;;;5035125;28;20452;-58
2022/05/02 10:36:38;;;;;;;10.70;6.90;;;19.50;42.60;;;;;;5036416;28;20456;-58
2022/05/02 10:39:25;;;;;;;11.20;6.90;;;19.50;42.10;;;;;;5034630;28;20972;-58
2022/05/02 10:41:59;;;;;;;6.73;5.57;;;19.40;42.20;;;;;;5036319;28;20429;-59
2022/05/02 10:44:35;;;;;;;6.97;4.83;;;19.50;42.30;;;;;;5035962;28;20472;-59
2022/05/02 10:47:09;;;;;;;5.97;4.53;;;19.60;41.50;;;;;;5035463;28;20432;-60
2022/05/02 10:49:48;;;;;;;8.80;5.07;;;19.70;41.20;;;;;;5035404;28;20488;-60
2022/05/02 10:52:29;;;;;;;5.93;5.10;;;19.90;40.20;;;;;;5036118;28;20429;-59
2022/05/02 10:55:05;;;;;;;6.53;4.93;;;20.00;39.50;;;;;;5035315;28;20528;-61
2022/05/02 10:57:35;;;;;;;11.20;5.30;;;20.00;39.50;;;;;;5034822;28;20484;-59
2022/05/02 11:00:06;;;;;;;5.90;5.30;;;20.10;39.50;;;;;;5035484;28;20568;-61
2022/05/02 11:02:46;;;;;;;7.80;5.83;;;20.20;39.30;;;;;;5034556;28;20917;-59
2022/05/02 11:05:16;;;;;;;6.90;5.63;;;20.30;39.30;;;;;;5032789;28;20453;-60
2022/05/02 11:07:58;;;;;;;5.70;4.90;;;20.30;39.00;;;;;;5033555;28;20441;-59
2022/05/02 11:10:30;;;;;;;8.77;5.10;;;20.30;39.00;;;;;;5033776;28;20515;-59
2022/05/02 11:13:10;;;;;;;6.97;5.20;;;20.20;39.00;;;;;;5033215;28;20468;-58
2022/05/02 11:16:09;;;;;;;7.20;5.33;;;20.30;39.80;;;;;;5033743;28;20437;-59
2022/05/02 11:21:49;;;;;;;7.63;4.73;;;20.20;38.50;;;;;;5033179;28;20404;-59
2022/05/02 11:24:32;;;;;;;5.73;5.03;;;20.00;38.60;;;;;;5033189;28;20436;-59
2022/05/02 11:27:10;;;;;;;5.80;4.83;;;20.00;38.90;;;;;;5033014;28;20428;-61
2022/05/02 11:29:48;;;;;;;9.83;4.70;;;20.00;39.00;;;;;;4994272;28;20545;-59
2022/05/02 11:32:27;;;;;;;5.90;4.87;;;20.20;39.10;;;;;;4993962;28;20439;-58
2022/05/02 11:35:03;;;;;;;7.77;4.83;;;20.40;39.00;;;;;;4994386;28;20462;-59
2022/05/02 11:37:38;;;;;;;6.43;5.50;;;20.50;39.00;;;;;;5013757;28;20456;-58
2022/05/02 11:40:09;;;;;;;7.87;5.93;;;20.60;38.90;;;;;;5013736;28;20488;-58
2022/05/02 11:42:42;;;;;;;6.27;5.60;;;20.80;38.70;;;;;;5013540;28;20805;-58
2022/05/02 11:45:11;;;;;;;15.10;12.83;;;21.00;38.60;;;;;;5013611;28;20508;-58
2022/05/02 11:48:14;;;;;;;11.37;10.17;;;21.30;38.40;;;;;;5013735;28;20932;-58
2022/05/02 11:50:44;;;;;;;6.60;6.00;;;21.90;38.20;;;;;;5012320;28;20485;-58
2022/05/02 11:53:14;;;;;;;5.70;5.20;;;22.50;37.50;;;;;;5013696;28;20876;-58
2022/05/02 11:55:42;;;;;;;6.37;5.67;;;23.10;36.90;;;;;;5011913;28;21016;-58
2022/05/02 11:58:21;;;;;;;6.53;5.57;;;23.70;36.40;;;;;;5013322;28;20450;-58
2022/05/02 12:00:54;;;;;;;10.00;5.60;;;24.10;35.50;;;;;;5014151;28;20469;-58
2022/05/02 12:03:25;;;;;;;6.43;5.70;;;24.40;34.90;;;;;;5012842;28;20446;-60
2022/05/02 12:05:55;;;;;;;7.03;6.23;;;23.80;34.60;;;;;;5013534;28;20434;-59
2022/05/02 12:08:32;;;;;;;5.67;5.17;;;23.40;35.20;;;;;;5012993;28;20455;-61
2022/05/02 12:11:07;;;;;;;5.13;4.63;;;23.60;35.20;;;;;;5011039;28;20469;-60
2022/05/02 12:13:40;;;;;;;7.00;5.40;;;23.90;34.80;;;;;;5012727;28;20460;-59
2022/05/02 12:16:11;;;;;;;6.33;5.20;;;24.50;34.50;;;;;;5012905;28;20450;-59
2022/05/02 12:18:44;;;;;;;7.03;5.30;;;25.10;34.00;;;;;;5012387;28;20564;-60
2022/05/02 12:21:16;;;;;;;6.10;5.50;;;25.40;33.40;;;;;;5012503;28;20907;-58
2022/05/02 12:23:43;;;;;;;6.07;5.43;;;25.40;33.00;;;;;;5012579;28;20434;-59
2022/05/02 12:26:18;;;;;;;6.33;5.67;;;25.10;32.90;;;;;;5012784;28;20449;-59
2022/05/02 12:28:49;;;;;;;6.50;5.73;;;24.40;33.10;;;;;;5012802;28;20473;-60
2022/05/02 12:31:19;;;;;;;5.73;4.70;;;23.40;33.90;;;;;;5015837;28;20560;-60
2022/05/02 12:33:50;;;;;;;9.20;7.00;;;22.50;35.00;;;;;;5016404;28;20458;-59
2022/05/02 12:36:19;;;;;;;6.30;5.70;;;22.10;35.80;;;;;;5016614;28;20434;-59
2022/05/02 12:38:55;;;;;;;7.83;5.70;;;21.70;36.20;;;;;;5016581;28;20485;-60
2022/05/02 12:41:27;;;;;;;6.33;5.37;;;21.60;36.50;;;;;;5016441;28;20434;-57
2022/05/02 12:44:10;;;;;;;7.37;5.60;;;21.50;36.70;;;;;;5016720;28;20469;-58
2022/05/02 12:46:39;;;;;;;6.03;5.40;;;21.60;36.60;;;;;;5016416;28;20516;-58
2022/05/02 12:49:11;;;;;;;7.33;5.87;;;21.80;36.70;;;;;;5016937;28;20461;-60
2022/05/02 12:51:39;;;;;;;7.37;5.67;;;21.90;36.60;;;;;;5016651;28;20469;-59
2022/05/02 12:54:12;;;;;;;6.90;5.50;;;21.90;36.80;;;;;;5016316;28;20450;-58
2022/05/02 13:02:42;;;;;;;5.90;5.40;;;22.70;36.50;;;;;;5016858;28;20474;-58
2022/05/02 13:05:12;;;;;;;6.40;5.83;;;22.80;36.30;;;;;;5017223;28;20448;-58
2022/05/02 13:07:45;;;;;;;6.20;5.60;;;22.90;36.10;;;;;;5016999;28;20442;-60
2022/05/02 13:10:21;;;;;;;7.77;6.10;;;23.00;36.00;;;;;;5016057;28;20573;-59
2022/05/02 13:12:59;;;;;;;6.53;6.03;;;23.10;35.60;;;;;;5016093;28;20446;-59
2022/05/02 13:15:30;;;;;;;7.27;6.57;;;22.70;35.30;;;;;;5015997;28;20430;-60
2022/05/02 13:18:01;;;;;;;8.40;6.30;;;22.30;35.90;;;;;;5016208;28;20464;-58
2022/05/02 13:20:31;;;;;;;6.33;5.13;;;22.10;36.20;;;;;;5015560;28;20575;-58
2022/05/02 13:23:03;;;;;;;8.13;5.80;;;22.00;36.50;;;;;;5016005;28;20496;-60
2022/05/02 13:25:57;;;;;;;6.00;5.53;;;22.00;36.70;;;;;;5017058;28;20437;-60
2022/05/02 13:28:25;;;;;;;7.40;5.57;;;22.10;36.80;;;;;;5016189;28;20453;-59
2022/05/02 13:31:00;;;;;;;6.03;5.53;;;22.30;36.80;;;;;;5016976;28;20485;-60
2022/05/02 13:33:34;;;;;;;5.97;5.37;;;22.20;36.50;;;;;;5017168;28;20811;-61
2022/05/02 13:36:05;;;;;;;9.53;5.77;;;22.00;36.90;;;;;;5016313;28;20429;-60
2022/05/02 13:38:42;;;;;;;5.90;5.40;;;21.80;37.30;;;;;;5016181;28;20431;-60
2022/05/02 13:41:18;;;;;;;8.17;5.77;;;21.70;37.70;;;;;;5015112;28;20911;-61
2022/05/02 13:43:53;;;;;;;6.93;5.70;;;21.50;37.80;;;;;;5016014;28;20457;-60
2022/05/02 13:46:33;;;;;;;7.10;6.10;;;21.30;37.90;;;;;;5015383;28;20453;-60
2022/05/02 13:49:12;;;;;;;9.33;6.03;;;21.10;38.20;;;;;;5014985;28;20469;-59
2022/05/02 13:51:50;;;;;;;6.93;5.43;;;20.90;38.30;;;;;;5014783;28;20469;-58
2022/05/02 13:54:24;;;;;;;6.80;6.20;;;21.00;38.40;;;;;;5015785;28;20441;-59
2022/05/02 13:57:02;;;;;;;8.30;6.50;;;21.30;38.20;;;;;;5015148;28;20441;-59
2022/05/02 13:59:40;;;;;;;6.93;6.23;;;21.70;37.70;;;;;;5015116;28;20478;-60
2022/05/02 14:02:17;;;;;;;7.53;6.50;;;22.10;37.20;;;;;;5015168;28;20422;-59
2022/05/02 14:04:52;;;;;;;7.60;6.90;;;22.20;36.60;;;;;;5014808;28;20498;-59
2022/05/02 14:07:20;;;;;;;6.63;6.03;;;22.20;36.50;;;;;;5014793;28;20434;-59